sensor_id;sensor_type;location;lat;lon;timestamp;pressure;altitude;pressure_sealevel;temperature;humidity
67931;BME280;63902;52.000;5.954;2023-03-15T00:00:09;100746.53;;;0.80;95.01
67931;BME280;63902;52.000;5.954;2023-03-15T00:01:13;100738.69;;;0.80;94.92
67931;BME280;63902;52.000;5.954;2023-03-15T00:02:14;100733.47;;;0.80;94.65
67931;BME280;63902;52.000;5.954;2023-03-15T00:03:15;100736.97;;;0.76;94.82
67931;BME280;63902;52.000;5.954;2023-03-15T00:04:15;100728.25;;;0.72;94.65
67931;BME280;63902;52.000;5.954;2023-03-15T00:05:16;100734.34;;;0.74;95.53
67931;BME280;63902;52.000;5.954;2023-03-15T00:06:16;100736.94;;;0.73;96.30
67931;BME280;63902;52.000;5.954;2023-03-15T00:07:17;100735.22;;;0.72;96.87
67931;BME280;63902;52.000;5.954;2023-03-15T00:08:19;100741.31;;;0.71;96.98
67931;BME280;63902;52.000;5.954;2023-03-15T00:09:19;100739.59;;;0.71;97.69
67931;BME280;63902;52.000;5.954;2023-03-15T00:10:20;100734.34;;;0.70;96.93
67931;BME280;63902;52.000;5.954;2023-03-15T00:11:20;100741.31;;;0.71;95.80
67931;BME280;63902;52.000;5.954;2023-03-15T00:12:21;100743.06;;;0.70;96.39
67931;BME280;63902;52.000;5.954;2023-03-15T00:13:21;100744.78;;;0.70;96.55
67931;BME280;63902;52.000;5.954;2023-03-15T00:14:22;100747.41;;;0.66;97.07
67931;BME280;63902;52.000;5.954;2023-03-15T00:15:22;100739.56;;;0.66;96.41
67931;BME280;63902;52.000;5.954;2023-03-15T00:16:23;100747.41;;;0.68;96.07
67931;BME280;63902;52.000;5.954;2023-03-15T00:17:24;100746.56;;;0.64;96.75
67931;BME280;63902;52.000;5.954;2023-03-15T00:18:25;100743.06;;;0.61;97.21
67931;BME280;63902;52.000;5.954;2023-03-15T00:19:26;100730.91;;;0.54;97.57
67931;BME280;63902;52.000;5.954;2023-03-15T00:20:26;100747.44;;;0.60;97.14
67931;BME280;63902;52.000;5.954;2023-03-15T00:21:27;100731.78;;;0.51;96.90
67931;BME280;63902;52.000;5.954;2023-03-15T00:22:27;100721.38;;;0.45;97.34
67931;BME280;63902;52.000;5.954;2023-03-15T00:23:29;100747.44;;;0.59;97.38
67931;BME280;63902;52.000;5.954;2023-03-15T00:24:30;100744.81;;;0.57;98.33
67931;BME280;63902;52.000;5.954;2023-03-15T00:25:30;100735.28;;;0.56;100.00
67931;BME280;63902;52.000;5.954;2023-03-15T00:26:31;100730.03;;;0.55;100.00
67931;BME280;63902;52.000;5.954;2023-03-15T00:27:31;100733.50;;;0.55;99.15
67931;BME280;63902;52.000;5.954;2023-03-15T00:28:32;100736.13;;;0.55;99.01
67931;BME280;63902;52.000;5.954;2023-03-15T00:29:32;100738.75;;;0.57;98.37
67931;BME280;63902;52.000;5.954;2023-03-15T00:30:33;100717.88;;;0.51;100.00
67931;BME280;63902;52.000;5.954;2023-03-15T00:31:33;100731.75;;;0.56;100.00
67931;BME280;63902;52.000;5.954;2023-03-15T00:32:34;100729.19;;;0.51;100.00
67931;BME280;63902;52.000;5.954;2023-03-15T00:33:34;100735.28;;;0.56;99.62
67931;BME280;63902;52.000;5.954;2023-03-15T00:34:35;100740.50;;;0.56;100.00
67931;BME280;63902;52.000;5.954;2023-03-15T00:35:37;100737.00;;;0.53;100.00
67931;BME280;63902;52.000;5.954;2023-03-15T00:36:39;100731.78;;;0.48;99.91
67931;BME280;63902;52.000;5.954;2023-03-15T00:37:40;100746.56;;;0.55;99.85
67931;BME280;63902;52.000;5.954;2023-03-15T00:38:42;100746.56;;;0.52;99.63
67931;BME280;63902;52.000;5.954;2023-03-15T00:39:42;100754.38;;;0.55;98.98
67931;BME280;63902;52.000;5.954;2023-03-15T00:40:43;100750.03;;;0.56;98.40
67931;BME280;63902;52.000;5.954;2023-03-15T00:41:43;100754.38;;;0.55;98.56
67931;BME280;63902;52.000;5.954;2023-03-15T00:42:43;100760.50;;;0.54;99.05
67931;BME280;63902;52.000;5.954;2023-03-15T00:43:44;100762.22;;;0.54;99.02
67931;BME280;63902;52.000;5.954;2023-03-15T00:44:45;100750.06;;;0.51;98.96
67931;BME280;63902;52.000;5.954;2023-03-15T00:45:46;100758.75;;;0.55;98.39
67931;BME280;63902;52.000;5.954;2023-03-15T00:46:46;100741.38;;;0.51;98.31
67931;BME280;63902;52.000;5.954;2023-03-15T00:47:48;100749.19;;;0.51;97.69
67931;BME280;63902;52.000;5.954;2023-03-15T00:48:50;100747.44;;;0.51;98.88
67931;BME280;63902;52.000;5.954;2023-03-15T00:49:51;100763.09;;;0.54;98.75
67931;BME280;63902;52.000;5.954;2023-03-15T00:51:00;100762.22;;;0.52;97.97
67931;BME280;63902;52.000;5.954;2023-03-15T00:52:01;100759.63;;;0.52;98.29
67931;BME280;63902;52.000;5.954;2023-03-15T00:53:01;100761.34;;;0.53;97.89
67931;BME280;63902;52.000;5.954;2023-03-15T00:54:03;100752.66;;;0.53;99.08
67931;BME280;63902;52.000;5.954;2023-03-15T00:55:04;100754.41;;;0.54;98.37
67931;BME280;63902;52.000;5.954;2023-03-15T00:56:07;100763.09;;;0.54;97.97
67931;BME280;63902;52.000;5.954;2023-03-15T00:57:08;100754.41;;;0.51;97.72
67931;BME280;63902;52.000;5.954;2023-03-15T00:58:08;100757.00;;;0.55;98.02
67931;BME280;63902;52.000;5.954;2023-03-15T00:59:09;100742.22;;;0.48;97.78
67931;BME280;63902;52.000;5.954;2023-03-15T01:00:12;100754.41;;;0.52;100.00
67931;BME280;63902;52.000;5.954;2023-03-15T01:01:14;100763.97;;;0.50;100.00
67931;BME280;63902;52.000;5.954;2023-03-15T01:02:15;100757.88;;;0.50;99.16
67931;BME280;63902;52.000;5.954;2023-03-15T01:03:15;100768.31;;;0.53;98.30
67931;BME280;63902;52.000;5.954;2023-03-15T01:04:16;100756.13;;;0.47;99.90
67931;BME280;63902;52.000;5.954;2023-03-15T01:05:17;100761.34;;;0.50;99.96
67931;BME280;63902;52.000;5.954;2023-03-15T01:06:19;100775.25;;;0.55;99.41
67931;BME280;63902;52.000;5.954;2023-03-15T01:07:20;100773.53;;;0.56;100.00
67931;BME280;63902;52.000;5.954;2023-03-15T01:08:20;100731.78;;;0.33;99.72
67931;BME280;63902;52.000;5.954;2023-03-15T01:09:22;100750.94;;;0.41;99.05
67931;BME280;63902;52.000;5.954;2023-03-15T01:10:22;100766.59;;;0.56;99.46
67931;BME280;63902;52.000;5.954;2023-03-15T01:11:25;100767.47;;;0.54;99.29
67931;BME280;63902;52.000;5.954;2023-03-15T01:12:25;100775.25;;;0.55;98.93
67931;BME280;63902;52.000;5.954;2023-03-15T01:13:26;100743.97;;;0.40;99.37
67931;BME280;63902;52.000;5.954;2023-03-15T01:14:26;100773.53;;;0.54;98.81
67931;BME280;63902;52.000;5.954;2023-03-15T01:15:27;100777.03;;;0.56;98.39
67931;BME280;63902;52.000;5.954;2023-03-15T01:16:27;100769.19;;;0.55;98.91
67931;BME280;63902;52.000;5.954;2023-03-15T01:17:28;100771.78;;;0.53;99.02
67931;BME280;63902;52.000;5.954;2023-03-15T01:18:29;100765.69;;;0.53;98.96
67931;BME280;63902;52.000;5.954;2023-03-15T01:19:30;100778.75;;;0.54;98.56
67931;BME280;63902;52.000;5.954;2023-03-15T01:20:30;100780.50;;;0.52;97.98
67931;BME280;63902;52.000;5.954;2023-03-15T01:21:31;100790.03;;;0.53;98.31
67931;BME280;63902;52.000;5.954;2023-03-15T01:22:31;100774.41;;;0.49;98.84
67931;BME280;63902;52.000;5.954;2023-03-15T01:23:31;100781.38;;;0.54;100.00
67931;BME280;63902;52.000;5.954;2023-03-15T01:24:33;100775.28;;;0.49;99.82
67931;BME280;63902;52.000;5.954;2023-03-15T01:25:34;100780.50;;;0.49;99.95
67931;BME280;63902;52.000;5.954;2023-03-15T01:26:34;100796.16;;;0.55;100.00
67931;BME280;63902;52.000;5.954;2023-03-15T01:27:35;100769.19;;;0.41;100.00
67931;BME280;63902;52.000;5.954;2023-03-15T01:28:36;100788.31;;;0.52;99.78
67931;BME280;63902;52.000;5.954;2023-03-15T01:29:36;100796.16;;;0.55;98.99
67931;BME280;63902;52.000;5.954;2023-03-15T01:30:37;100792.69;;;0.56;99.05
67931;BME280;63902;52.000;5.954;2023-03-15T01:31:38;100787.47;;;0.56;98.58
67931;BME280;63902;52.000;5.954;2023-03-15T01:32:38;100792.69;;;0.59;98.43
67931;BME280;63902;52.000;5.954;2023-03-15T01:33:39;100787.47;;;0.59;100.00
67931;BME280;63902;52.000;5.954;2023-03-15T01:34:39;100792.69;;;0.59;100.00
67931;BME280;63902;52.000;5.954;2023-03-15T01:35:40;100799.63;;;0.60;100.00
67931;BME280;63902;52.000;5.954;2023-03-15T01:36:40;100801.38;;;0.60;100.00
67931;BME280;63902;52.000;5.954;2023-03-15T01:37:41;100804.84;;;0.60;100.00
67931;BME280;63902;52.000;5.954;2023-03-15T01:38:41;100802.25;;;0.62;100.00
67931;BME280;63902;52.000;5.954;2023-03-15T01:39:43;100795.28;;;0.61;100.00
67931;BME280;63902;52.000;5.954;2023-03-15T01:40:44;100808.31;;;0.65;100.00
67931;BME280;63902;52.000;5.954;2023-03-15T01:41:45;100806.56;;;0.61;100.00
67931;BME280;63902;52.000;5.954;2023-03-15T01:42:50;100806.59;;;0.64;100.00
67931;BME280;63902;52.000;5.954;2023-03-15T01:43:51;100797.00;;;0.60;100.00
67931;BME280;63902;52.000;5.954;2023-03-15T01:44:54;100816.13;;;0.67;99.54
67931;BME280;63902;52.000;5.954;2023-03-15T01:46:14;100809.22;;;0.64;99.98
67931;BME280;63902;52.000;5.954;2023-03-15T01:47:17;100817.88;;;0.66;100.00
67931;BME280;63902;52.000;5.954;2023-03-15T01:48:18;100814.44;;;0.68;100.00
67931;BME280;63902;52.000;5.954;2023-03-15T01:49:24;100817.03;;;0.68;100.00
67931;BME280;63902;52.000;5.954;2023-03-15T01:50:26;100816.13;;;0.67;100.00
67931;BME280;63902;52.000;5.954;2023-03-15T01:51:29;100825.72;;;0.70;99.98
67931;BME280;63902;52.000;5.954;2023-03-15T01:52:35;100823.09;;;0.70;99.95
67931;BME280;63902;52.000;5.954;2023-03-15T01:53:37;100818.78;;;0.70;99.37
67931;BME280;63902;52.000;5.954;2023-03-15T01:54:40;100825.72;;;0.73;100.00
67931;BME280;63902;52.000;5.954;2023-03-15T01:55:44;100821.38;;;0.72;100.00
67931;BME280;63902;52.000;5.954;2023-03-15T01:56:49;100818.75;;;0.72;99.97
67931;BME280;63902;52.000;5.954;2023-03-15T01:57:54;100808.31;;;0.69;99.76
67931;BME280;63902;52.000;5.954;2023-03-15T01:58:57;100823.97;;;0.75;99.26
67931;BME280;63902;52.000;5.954;2023-03-15T02:00:03;100822.22;;;0.75;98.99
67931;BME280;63902;52.000;5.954;2023-03-15T02:01:06;100825.72;;;0.76;99.93
67931;BME280;63902;52.000;5.954;2023-03-15T02:02:08;100821.38;;;0.72;100.00
67931;BME280;63902;52.000;5.954;2023-03-15T02:03:11;100819.63;;;0.75;100.00
67931;BME280;63902;52.000;5.954;2023-03-15T02:04:16;100822.25;;;0.74;99.69
67931;BME280;63902;52.000;5.954;2023-03-15T02:05:20;100823.97;;;0.72;99.68
67931;BME280;63902;52.000;5.954;2023-03-15T02:06:21;100822.22;;;0.72;99.67
67931;BME280;63902;52.000;5.954;2023-03-15T02:07:24;100827.47;;;0.74;100.00
67931;BME280;63902;52.000;5.954;2023-03-15T02:08:29;100818.75;;;0.69;99.57
67931;BME280;63902;52.000;5.954;2023-03-15T02:09:34;100826.59;;;0.73;99.53
67931;BME280;63902;52.000;5.954;2023-03-15T02:10:40;100826.59;;;0.73;99.25
67931;BME280;63902;52.000;5.954;2023-03-15T02:11:43;100824.84;;;0.74;99.59
67931;BME280;63902;52.000;5.954;2023-03-15T02:12:46;100827.47;;;0.74;99.39
67931;BME280;63902;52.000;5.954;2023-03-15T02:13:50;100830.94;;;0.73;100.00
67931;BME280;63902;52.000;5.954;2023-03-15T02:14:52;100827.47;;;0.71;99.93
67931;BME280;63902;52.000;5.954;2023-03-15T02:15:53;100830.94;;;0.73;99.62
67931;BME280;63902;52.000;5.954;2023-03-15T02:16:54;100830.06;;;0.74;99.15
67931;BME280;63902;52.000;5.954;2023-03-15T02:17:54;100831.81;;;0.73;99.31
67931;BME280;63902;52.000;5.954;2023-03-15T02:18:55;100829.22;;;0.73;99.21
67931;BME280;63902;52.000;5.954;2023-03-15T02:20:00;100832.69;;;0.74;99.19
67931;BME280;63902;52.000;5.954;2023-03-15T02:21:13;100831.81;;;0.75;99.27
67931;BME280;63902;52.000;5.954;2023-03-15T02:22:25;100836.19;;;0.76;100.00
67931;BME280;63902;52.000;5.954;2023-03-15T02:23:30;100827.47;;;0.74;100.00
67931;BME280;63902;52.000;5.954;2023-03-15T02:24:36;100821.38;;;0.72;100.00
67931;BME280;63902;52.000;5.954;2023-03-15T02:25:43;100830.06;;;0.75;100.00
67931;BME280;63902;52.000;5.954;2023-03-15T02:26:49;100824.00;;;0.73;100.00
67931;BME280;63902;52.000;5.954;2023-03-15T02:27:53;100827.47;;;0.74;100.00
67931;BME280;63902;52.000;5.954;2023-03-15T02:28:55;100803.13;;;0.59;100.00
67931;BME280;63902;52.000;5.954;2023-03-15T02:29:55;100824.84;;;0.75;100.00
67931;BME280;63902;52.000;5.954;2023-03-15T02:30:56;100833.53;;;0.77;100.00
67931;BME280;63902;52.000;5.954;2023-03-15T02:31:57;100834.41;;;0.78;100.00
67931;BME280;63902;52.000;5.954;2023-03-15T02:32:58;100826.59;;;0.72;100.00
67931;BME280;63902;52.000;5.954;2023-03-15T02:34:00;100809.19;;;0.58;100.00
67931;BME280;63902;52.000;5.954;2023-03-15T02:35:01;100808.34;;;0.62;100.00
67931;BME280;63902;52.000;5.954;2023-03-15T02:36:14;100842.25;;;0.75;100.00
67931;BME280;63902;52.000;5.954;2023-03-15T02:37:16;100846.59;;;0.74;100.00
67931;BME280;63902;52.000;5.954;2023-03-15T02:38:17;100843.09;;;0.75;100.00
67931;BME280;63902;52.000;5.954;2023-03-15T02:39:18;100833.53;;;0.70;100.00
67931;BME280;63902;52.000;5.954;2023-03-15T02:40:21;100849.22;;;0.74;100.00
67931;BME280;63902;52.000;5.954;2023-03-15T02:41:27;100848.34;;;0.74;100.00
67931;BME280;63902;52.000;5.954;2023-03-15T02:42:28;100845.72;;;0.69;100.00
67931;BME280;63902;52.000;5.954;2023-03-15T02:43:31;100834.44;;;0.65;100.00
67931;BME280;63902;52.000;5.954;2023-03-15T02:44:34;100850.06;;;0.75;100.00
67931;BME280;63902;52.000;5.954;2023-03-15T02:45:37;100848.34;;;0.74;100.00
67931;BME280;63902;52.000;5.954;2023-03-15T02:46:38;100850.97;;;0.74;100.00
67931;BME280;63902;52.000;5.954;2023-03-15T02:47:39;100850.09;;;0.73;100.00
67931;BME280;63902;52.000;5.954;2023-03-15T02:48:41;100847.47;;;0.72;100.00
67931;BME280;63902;52.000;5.954;2023-03-15T02:49:44;100848.34;;;0.71;100.00
67931;BME280;63902;52.000;5.954;2023-03-15T02:50:45;100830.06;;;0.55;100.00
67931;BME280;63902;52.000;5.954;2023-03-15T02:51:46;100852.69;;;0.69;100.00
67931;BME280;63902;52.000;5.954;2023-03-15T02:52:46;100859.66;;;0.70;100.00
67931;BME280;63902;52.000;5.954;2023-03-15T02:53:47;100855.31;;;0.69;100.00
67931;BME280;63902;52.000;5.954;2023-03-15T02:54:48;100860.50;;;0.67;100.00
67931;BME280;63902;52.000;5.954;2023-03-15T02:55:48;100861.41;;;0.66;100.00
67931;BME280;63902;52.000;5.954;2023-03-15T02:56:49;100844.00;;;0.60;100.00
67931;BME280;63902;52.000;5.954;2023-03-15T02:57:49;100859.66;;;0.65;100.00
67931;BME280;63902;52.000;5.954;2023-03-15T02:58:51;100854.44;;;0.63;100.00
67931;BME280;63902;52.000;5.954;2023-03-15T02:59:52;100869.25;;;0.68;100.00
67931;BME280;63902;52.000;5.954;2023-03-15T03:00:52;100859.66;;;0.62;100.00
67931;BME280;63902;52.000;5.954;2023-03-15T03:01:53;100872.69;;;0.63;100.00
67931;BME280;63902;52.000;5.954;2023-03-15T03:02:54;100873.59;;;0.59;100.00
67931;BME280;63902;52.000;5.954;2023-03-15T03:03:54;100884.03;;;0.62;100.00
67931;BME280;63902;52.000;5.954;2023-03-15T03:04:54;100881.41;;;0.56;100.00
67931;BME280;63902;52.000;5.954;2023-03-15T03:05:55;100870.94;;;0.53;100.00
67931;BME280;63902;52.000;5.954;2023-03-15T03:06:56;100852.69;;;0.42;100.00
67931;BME280;63902;52.000;5.954;2023-03-15T03:07:56;100870.09;;;0.54;100.00
67931;BME280;63902;52.000;5.954;2023-03-15T03:08:56;100885.75;;;0.63;100.00
67931;BME280;63902;52.000;5.954;2023-03-15T03:09:57;100885.78;;;0.62;100.00
67931;BME280;63902;52.000;5.954;2023-03-15T03:10:58;100892.72;;;0.63;100.00
67931;BME280;63902;52.000;5.954;2023-03-15T03:11:58;100897.97;;;0.64;100.00
67931;BME280;63902;52.000;5.954;2023-03-15T03:12:59;100893.59;;;0.60;100.00
67931;BME280;63902;52.000;5.954;2023-03-15T03:14:00;100902.28;;;0.62;100.00
67931;BME280;63902;52.000;5.954;2023-03-15T03:15:01;100865.72;;;0.36;100.00
67931;BME280;63902;52.000;5.954;2023-03-15T03:16:01;100914.47;;;0.59;100.00
67931;BME280;63902;52.000;5.954;2023-03-15T03:17:02;100903.16;;;0.54;100.00
67931;BME280;63902;52.000;5.954;2023-03-15T03:18:03;100914.47;;;0.57;100.00
67931;BME280;63902;52.000;5.954;2023-03-15T03:19:03;100917.94;;;0.55;100.00
67931;BME280;63902;52.000;5.954;2023-03-15T03:20:04;100911.84;;;0.56;100.00
67931;BME280;63902;52.000;5.954;2023-03-15T03:21:06;100914.44;;;0.53;100.00
67931;BME280;63902;52.000;5.954;2023-03-15T03:22:06;100923.13;;;0.53;100.00
67931;BME280;63902;52.000;5.954;2023-03-15T03:23:07;100914.44;;;0.53;100.00
67931;BME280;63902;52.000;5.954;2023-03-15T03:24:07;100924.03;;;0.52;100.00
67931;BME280;63902;52.000;5.954;2023-03-15T03:25:08;100901.38;;;0.37;100.00
67931;BME280;63902;52.000;5.954;2023-03-15T03:26:13;100910.94;;;0.38;100.00
67931;BME280;63902;52.000;5.954;2023-03-15T03:27:14;100901.38;;;0.27;100.00
67931;BME280;63902;52.000;5.954;2023-03-15T03:28:14;100934.44;;;0.48;100.00
67931;BME280;63902;52.000;5.954;2023-03-15T03:29:16;100905.69;;;0.31;100.00
67931;BME280;63902;52.000;5.954;2023-03-15T03:30:17;100924.00;;;0.40;100.00
67931;BME280;63902;52.000;5.954;2023-03-15T03:31:18;100937.03;;;0.44;100.00
67931;BME280;63902;52.000;5.954;2023-03-15T03:32:19;100931.81;;;0.38;100.00
67931;BME280;63902;52.000;5.954;2023-03-15T03:33:20;100926.59;;;0.38;100.00
67931;BME280;63902;52.000;5.954;2023-03-15T03:34:21;100937.91;;;0.42;100.00
67931;BME280;63902;52.000;5.954;2023-03-15T03:35:21;100936.19;;;0.42;100.00
67931;BME280;63902;52.000;5.954;2023-03-15T03:36:22;100924.88;;;0.34;100.00
67931;BME280;63902;52.000;5.954;2023-03-15T03:37:22;100938.78;;;0.41;100.00
67931;BME280;63902;52.000;5.954;2023-03-15T03:38:23;100938.75;;;0.36;100.00
67931;BME280;63902;52.000;5.954;2023-03-15T03:39:23;100941.38;;;0.35;100.00
67931;BME280;63902;52.000;5.954;2023-03-15T03:40:24;100944.88;;;0.37;100.00
67931;BME280;63902;52.000;5.954;2023-03-15T03:41:24;100940.50;;;0.36;100.00
67931;BME280;63902;52.000;5.954;2023-03-15T03:42:25;100945.72;;;0.36;100.00
67931;BME280;63902;52.000;5.954;2023-03-15T03:43:25;100937.03;;;0.34;100.00
67931;BME280;63902;52.000;5.954;2023-03-15T03:44:27;100938.78;;;0.32;100.00
67931;BME280;63902;52.000;5.954;2023-03-15T03:45:28;100946.59;;;0.38;100.00
67931;BME280;63902;52.000;5.954;2023-03-15T03:46:28;100947.47;;;0.38;100.00
67931;BME280;63902;52.000;5.954;2023-03-15T03:47:28;100958.78;;;0.36;100.00
67931;BME280;63902;52.000;5.954;2023-03-15T03:48:29;100940.50;;;0.30;100.00
67931;BME280;63902;52.000;5.954;2023-03-15T03:49:30;100954.44;;;0.32;100.00
67931;BME280;63902;52.000;5.954;2023-03-15T03:50:30;100950.94;;;0.30;100.00
67931;BME280;63902;52.000;5.954;2023-03-15T03:51:30;100940.47;;;0.25;100.00
67931;BME280;63902;52.000;5.954;2023-03-15T03:52:31;100955.31;;;0.34;100.00
67931;BME280;63902;52.000;5.954;2023-03-15T03:53:31;100954.41;;;0.30;100.00
67931;BME280;63902;52.000;5.954;2023-03-15T03:54:32;100958.75;;;0.27;100.00
67931;BME280;63902;52.000;5.954;2023-03-15T03:55:32;100963.09;;;0.28;100.00
67931;BME280;63902;52.000;5.954;2023-03-15T03:56:33;100964.84;;;0.26;100.00
67931;BME280;63902;52.000;5.954;2023-03-15T03:57:35;100972.66;;;0.24;100.00
67931;BME280;63902;52.000;5.954;2023-03-15T03:58:35;100970.00;;;0.19;100.00
67931;BME280;63902;52.000;5.954;2023-03-15T03:59:37;100954.31;;;0.04;100.00
67931;BME280;63902;52.000;5.954;2023-03-15T04:00:37;100974.38;;;0.14;100.00
67931;BME280;63902;52.000;5.954;2023-03-15T04:01:38;100976.97;;;0.14;100.00
67931;BME280;63902;52.000;5.954;2023-03-15T04:02:39;100981.28;;;0.14;100.00
67931;BME280;63902;52.000;5.954;2023-03-15T04:03:39;100984.78;;;0.13;100.00
67931;BME280;63902;52.000;5.954;2023-03-15T04:04:39;100984.81;;;0.14;100.00
67931;BME280;63902;52.000;5.954;2023-03-15T04:05:40;100992.63;;;0.14;100.00
67931;BME280;63902;52.000;5.954;2023-03-15T04:06:40;100990.88;;;0.13;100.00
67931;BME280;63902;52.000;5.954;2023-03-15T04:07:41;100997.84;;;0.11;100.00
67931;BME280;63902;52.000;5.954;2023-03-15T04:08:41;100990.84;;;0.06;100.00
67931;BME280;63902;52.000;5.954;2023-03-15T04:09:42;100983.88;;;0.00;100.00
67931;BME280;63902;52.000;5.954;2023-03-15T04:10:42;101005.63;;;0.08;100.00
67931;BME280;63902;52.000;5.954;2023-03-15T04:11:43;101003.00;;;0.08;100.00
67931;BME280;63902;52.000;5.954;2023-03-15T04:12:43;101001.28;;;0.06;100.00
67931;BME280;63902;52.000;5.954;2023-03-15T04:13:44;101001.28;;;0.07;100.00
67931;BME280;63902;52.000;5.954;2023-03-15T04:14:46;101004.75;;;0.03;100.00
67931;BME280;63902;52.000;5.954;2023-03-15T04:15:46;101008.19;;;0.02;100.00
67931;BME280;63902;52.000;5.954;2023-03-15T04:16:47;101009.94;;;0.00;100.00
67931;BME280;63902;52.000;5.954;2023-03-15T04:17:47;101005.59;;;-0.03;100.00
67931;BME280;63902;52.000;5.954;2023-03-15T04:18:48;100997.72;;;-0.10;100.00
67931;BME280;63902;52.000;5.954;2023-03-15T04:19:48;100976.78;;;-0.24;100.00
67931;BME280;63902;52.000;5.954;2023-03-15T04:20:49;101007.28;;;-0.06;100.00
67931;BME280;63902;52.000;5.954;2023-03-15T04:21:49;101009.03;;;-0.08;100.00
67931;BME280;63902;52.000;5.954;2023-03-15T04:22:50;101011.63;;;-0.08;100.00
67931;BME280;63902;52.000;5.954;2023-03-15T04:23:50;101015.97;;;-0.10;100.00
67931;BME280;63902;52.000;5.954;2023-03-15T04:24:51;101015.94;;;-0.12;100.00
67931;BME280;63902;52.000;5.954;2023-03-15T04:25:52;101021.16;;;-0.12;100.00
67931;BME280;63902;52.000;5.954;2023-03-15T04:26:52;101010.75;;;-0.13;100.00
67931;BME280;63902;52.000;5.954;2023-03-15T04:27:53;101021.16;;;-0.12;100.00
67931;BME280;63902;52.000;5.954;2023-03-15T04:28:54;101016.81;;;-0.11;100.00
67931;BME280;63902;52.000;5.954;2023-03-15T04:29:56;101014.16;;;-0.17;100.00
67931;BME280;63902;52.000;5.954;2023-03-15T04:30:57;101008.94;;;-0.20;100.00
67931;BME280;63902;52.000;5.954;2023-03-15T04:31:58;100989.78;;;-0.33;100.00
67931;BME280;63902;52.000;5.954;2023-03-15T04:32:58;101027.22;;;-0.17;100.00
67931;BME280;63902;52.000;5.954;2023-03-15T04:33:59;101024.59;;;-0.19;100.00
67931;BME280;63902;52.000;5.954;2023-03-15T04:35:00;101028.94;;;-0.18;100.00
67931;BME280;63902;52.000;5.954;2023-03-15T04:36:01;101021.09;;;-0.23;100.00
67931;BME280;63902;52.000;5.954;2023-03-15T04:37:01;101023.69;;;-0.23;100.00
67931;BME280;63902;52.000;5.954;2023-03-15T04:38:02;101032.44;;;-0.14;100.00
67931;BME280;63902;52.000;5.954;2023-03-15T04:39:03;101028.97;;;-0.19;100.00
67931;BME280;63902;52.000;5.954;2023-03-15T04:40:04;101035.91;;;-0.15;100.00
67931;BME280;63902;52.000;5.954;2023-03-15T04:41:05;101027.19;;;-0.24;100.00
67931;BME280;63902;52.000;5.954;2023-03-15T04:42:06;101037.66;;;-0.14;100.00
67931;BME280;63902;52.000;5.954;2023-03-15T04:43:07;101039.38;;;-0.15;100.00
67931;BME280;63902;52.000;5.954;2023-03-15T04:44:08;101038.50;;;-0.17;100.00
67931;BME280;63902;52.000;5.954;2023-03-15T04:45:10;101035.91;;;-0.15;100.00
67931;BME280;63902;52.000;5.954;2023-03-15T04:46:11;101049.84;;;-0.13;100.00
67931;BME280;63902;52.000;5.954;2023-03-15T04:47:11;101048.06;;;-0.14;100.00
67931;BME280;63902;52.000;5.954;2023-03-15T04:48:12;101036.78;;;-0.16;100.00
67931;BME280;63902;52.000;5.954;2023-03-15T04:49:12;101038.53;;;-0.15;100.00
67931;BME280;63902;52.000;5.954;2023-03-15T04:50:13;101047.22;;;-0.12;100.00
67931;BME280;63902;52.000;5.954;2023-03-15T04:51:13;101047.22;;;-0.13;100.00
67931;BME280;63902;52.000;5.954;2023-03-15T04:52:14;101054.19;;;-0.12;100.00
67931;BME280;63902;52.000;5.954;2023-03-15T04:53:14;101054.19;;;-0.12;100.00
67931;BME280;63902;52.000;5.954;2023-03-15T04:54:15;101047.22;;;-0.13;100.00
67931;BME280;63902;52.000;5.954;2023-03-15T04:55:16;101046.31;;;-0.21;100.00
67931;BME280;63902;52.000;5.954;2023-03-15T04:56:16;101059.41;;;-0.12;100.00
67931;BME280;63902;52.000;5.954;2023-03-15T04:57:17;101057.66;;;-0.12;100.00
67931;BME280;63902;52.000;5.954;2023-03-15T04:58:18;101061.13;;;-0.13;100.00
67931;BME280;63902;52.000;5.954;2023-03-15T04:59:18;101056.78;;;-0.15;100.00
67931;BME280;63902;52.000;5.954;2023-03-15T05:00:20;101063.75;;;-0.13;100.00
67931;BME280;63902;52.000;5.954;2023-03-15T05:01:26;101064.63;;;-0.14;100.00
67931;BME280;63902;52.000;5.954;2023-03-15T05:02:27;101064.56;;;-0.17;100.00
67931;BME280;63902;52.000;5.954;2023-03-15T05:03:27;101071.53;;;-0.17;100.00
67931;BME280;63902;52.000;5.954;2023-03-15T05:04:28;101072.41;;;-0.18;100.00
67931;BME280;63902;52.000;5.954;2023-03-15T05:05:31;101068.06;;;-0.19;100.00
67931;BME280;63902;52.000;5.954;2023-03-15T05:06:32;101066.28;;;-0.25;100.00
67931;BME280;63902;52.000;5.954;2023-03-15T05:07:33;101069.75;;;-0.23;100.00
67931;BME280;63902;52.000;5.954;2023-03-15T05:08:34;101082.81;;;-0.21;100.00
67931;BME280;63902;52.000;5.954;2023-03-15T05:09:34;101080.19;;;-0.21;100.00
67931;BME280;63902;52.000;5.954;2023-03-15T05:10:35;101069.75;;;-0.23;100.00
67931;BME280;63902;52.000;5.954;2023-03-15T05:11:35;101071.47;;;-0.27;100.00
67931;BME280;63902;52.000;5.954;2023-03-15T05:12:36;101084.53;;;-0.24;100.00
67931;BME280;63902;52.000;5.954;2023-03-15T05:13:36;101083.66;;;-0.24;100.00
67931;BME280;63902;52.000;5.954;2023-03-15T05:14:37;101060.94;;;-0.42;100.00
67931;BME280;63902;52.000;5.954;2023-03-15T05:15:39;101094.94;;;-0.24;100.00
67931;BME280;63902;52.000;5.954;2023-03-15T05:16:39;101095.81;;;-0.23;100.00
67931;BME280;63902;52.000;5.954;2023-03-15T05:17:39;101083.59;;;-0.32;100.00
67931;BME280;63902;52.000;5.954;2023-03-15T05:18:40;101095.81;;;-0.25;100.00
67931;BME280;63902;52.000;5.954;2023-03-15T05:19:41;101100.16;;;-0.24;100.00
67931;BME280;63902;52.000;5.954;2023-03-15T05:20:41;101094.06;;;-0.26;100.00